Time,TemperatureF,DewpointF,PressureIn,WindDirection,WindDirectionDegrees,WindSpeedMPH,WindSpeedGustMPH,Humidity,HourlyPrecipIn,Conditions,Clouds,dailyrainin,SoftwareType,DateUTC
2013-02-16 00:00:00,63.6,61.5,29.94,NNE,17,0.0,0.0,93,0.00,,,0.00,VWS V14.00,2013-02-16 05:00:00,
2013-02-16 00:05:00,63.7,61.6,29.94,NNE,17,1.0,2.0,93,0.00,,,0.00,VWS V14.00,2013-02-16 05:05:00,
2013-02-16 00:10:00,63.7,62.0,29.95,NNE,17,0.0,2.0,94,0.00,,,0.00,VWS V14.00,2013-02-16 05:10:00,
2013-02-16 00:15:00,63.7,61.6,29.94,NNE,17,0.0,0.0,93,0.00,,,0.00,VWS V14.00,2013-02-16 05:15:00,
2013-02-16 00:20:00,63.6,61.8,29.94,NNE,17,0.0,0.0,94,0.00,,,0.00,VWS V14.00,2013-02-16 05:20:00,
2013-02-16 00:23:00,63.7,62.0,29.95,NNE,17,0.0,0.0,94,0.00,,,0.00,VWS V14.00,2013-02-16 05:23:00,
2013-02-16 00:28:00,63.7,62.0,29.96,NNE,17,0.0,1.0,94,0.00,,,0.00,VWS V14.00,2013-02-16 05:28:00,
2013-02-16 00:33:00,63.7,62.0,29.94,NNE,17,0.0,0.0,94,0.00,,,0.00,VWS V14.00,2013-02-16 05:33:00,
2013-02-16 00:38:00,63.7,62.0,29.94,NNE,17,0.0,0.0,94,0.00,,,0.00,VWS V14.00,2013-02-16 05:38:00,
2013-02-16 00:43:00,63.7,62.0,29.94,NNE,17,0.0,0.0,94,0.00,,,0.00,VWS V14.00,2013-02-16 05:43:00,
2013-02-16 00:48:00,63.7,62.0,29.94,NNE,17,0.0,1.0,94,0.00,,,0.00,VWS V14.00,2013-02-16 05:48:00,
2013-02-16 00:53:00,63.7,62.0,29.93,NNE,17,0.0,2.0,94,0.00,,,0.00,VWS V14.00,2013-02-16 05:53:00,
2013-02-16 00:58:00,63.6,61.8,29.93,NNE,17,0.0,2.0,94,0.00,,,0.00,VWS V14.00,2013-02-16 05:58:00,
2013-02-16 01:03:00,63.6,61.8,29.93,NNE,17,0.0,0.0,94,0.00,,,0.00,VWS V14.00,2013-02-16 06:03:00,
2013-02-16 01:08:00,63.6,61.8,29.93,NNE,17,0.0,0.0,94,0.00,,,0.00,VWS V14.00,2013-02-16 06:08:00,
2013-02-16 01:13:00,63.6,61.8,29.93,NNE,17,0.0,0.0,94,0.00,,,0.00,VWS V14.00,2013-02-16 06:13:00,
2013-02-16 01:18:00,63.6,61.8,29.93,NNE,17,0.0,0.0,94,0.00,,,0.00,VWS V14.00,2013-02-16 06:18:00,
2013-02-16 01:23:00,63.5,61.8,29.92,NNE,17,0.0,0.0,94,0.00,,,0.00,VWS V14.00,2013-02-16 06:23:00,
2013-02-16 01:28:00,63.6,61.8,29.92,NNE,17,0.0,0.0,94,0.00,,,0.00,VWS V14.00,2013-02-16 06:28:00,
2013-02-16 01:33:00,63.5,61.8,29.91,NNE,17,0.0,0.0,94,0.00,,,0.00,VWS V14.00,2013-02-16 06:33:00,
2013-02-16 01:38:00,63.5,61.8,29.91,NNE,17,0.0,0.0,94,0.00,,,0.00,VWS V14.00,2013-02-16 06:38:00,
2013-02-16 01:43:00,63.6,61.8,29.91,NNE,17,0.0,0.0,94,0.00,,,0.00,VWS V14.00,2013-02-16 06:43:00,
2013-02-16 01:48:00,63.5,61.4,29.91,NNE,17,3.0,5.0,93,0.00,,,0.00,VWS V14.00,2013-02-16 06:48:00,
2013-02-16 01:53:00,62.6,59.9,29.91,North,360,4.0,9.0,91,0.00,,,0.00,VWS V14.00,2013-02-16 06:53:00,
2013-02-16 01:57:00,62.1,59.5,29.91,North,360,4.0,9.0,91,0.00,,,0.00,VWS V14.00,2013-02-16 06:57:00,
2013-02-16 02:03:00,61.9,58.9,29.91,North,360,1.0,3.0,90,0.00,,,0.00,VWS V14.00,2013-02-16 07:03:00,
2013-02-16 02:08:00,61.8,58.8,29.91,North,360,1.0,4.0,90,0.00,,,0.00,VWS V14.00,2013-02-16 07:08:00,
2013-02-16 02:13:00,61.8,58.5,29.90,North,360,2.0,4.0,89,0.00,,,0.00,VWS V14.00,2013-02-16 07:13:00,
2013-02-16 02:18:00,61.8,58.2,29.90,North,360,1.0,4.0,88,0.00,,,0.00,VWS V14.00,2013-02-16 07:18:00,
2013-02-16 02:23:00,61.8,58.2,29.90,North,360,0.0,4.0,88,0.00,,,0.00,VWS V14.00,2013-02-16 07:23:00,
2013-02-16 02:28:00,61.8,58.2,29.90,North,360,0.0,4.0,88,0.00,,,0.00,VWS V14.00,2013-02-16 07:28:00,
2013-02-16 02:33:00,61.9,58.0,29.90,North,360,0.0,3.0,87,0.00,,,0.00,VWS V14.00,2013-02-16 07:33:00,
2013-02-16 02:38:00,61.9,58.0,29.90,North,360,0.0,3.0,87,0.00,,,0.00,VWS V14.00,2013-02-16 07:38:00,
2013-02-16 02:43:00,61.9,58.0,29.89,North,360,1.0,3.0,87,0.00,,,0.00,VWS V14.00,2013-02-16 07:43:00,
2013-02-16 02:48:00,62.0,58.1,29.90,North,360,1.0,2.0,87,0.00,,,0.00,VWS V14.00,2013-02-16 07:48:00,
2013-02-16 02:53:00,61.9,58.0,29.89,North,360,1.0,4.0,87,0.00,,,0.00,VWS V14.00,2013-02-16 07:53:00,
2013-02-16 02:58:00,61.8,57.6,29.89,North,360,0.0,4.0,86,0.00,,,0.00,VWS V14.00,2013-02-16 07:58:00,
2013-02-16 03:02:00,61.7,57.2,29.89,North,360,1.0,2.0,85,0.00,,,0.00,VWS V14.00,2013-02-16 08:02:00,
2013-02-16 03:07:00,61.6,56.7,29.88,North,360,1.0,4.0,84,0.00,,,0.00,VWS V14.00,2013-02-16 08:07:00,
2013-02-16 03:12:00,61.5,56.6,29.88,North,360,0.0,4.0,84,0.00,,,0.00,VWS V14.00,2013-02-16 08:12:00,
2013-02-16 03:17:00,61.5,56.6,29.88,North,360,0.0,2.0,84,0.00,,,0.00,VWS V14.00,2013-02-16 08:17:00,
2013-02-16 03:23:00,61.5,56.6,29.88,North,360,0.0,2.0,84,0.00,,,0.00,VWS V14.00,2013-02-16 08:23:00,
2013-02-16 03:28:00,61.3,56.4,29.87,North,360,0.0,2.0,84,0.00,,,0.00,VWS V14.00,2013-02-16 08:28:00,
2013-02-16 03:33:00,61.2,56.3,29.88,North,360,0.0,3.0,84,0.00,,,0.00,VWS V14.00,2013-02-16 08:33:00,
2013-02-16 03:38:00,61.1,56.6,29.88,North,360,0.0,3.0,85,0.00,,,0.00,VWS V14.00,2013-02-16 08:38:00,
2013-02-16 03:43:00,61.0,56.5,29.88,North,360,0.0,3.0,85,0.00,,,0.00,VWS V14.00,2013-02-16 08:43:00,
2013-02-16 03:48:00,60.9,56.7,29.88,North,360,0.0,1.0,86,0.00,,,0.00,VWS V14.00,2013-02-16 08:48:00,
2013-02-16 03:52:00,60.8,56.6,29.88,North,360,0.0,1.0,86,0.00,,,0.00,VWS V14.00,2013-02-16 08:52:00,
2013-02-16 03:57:00,60.8,56.9,29.88,North,360,0.0,1.0,87,0.00,,,0.00,VWS V14.00,2013-02-16 08:57:00,
2013-02-16 04:02:00,60.7,56.5,29.89,North,360,0.0,1.0,86,0.00,,,0.00,VWS V14.00,2013-02-16 09:02:00,
2013-02-16 04:07:00,60.6,56.7,29.89,North,360,0.0,1.0,87,0.00,,,0.00,VWS V14.00,2013-02-16 09:07:00,
2013-02-16 04:12:00,60.5,56.6,29.89,North,360,0.0,1.0,87,0.00,,,0.00,VWS V14.00,2013-02-16 09:12:00,
2013-02-16 04:17:00,60.4,56.5,29.88,North,360,0.0,0.0,87,0.00,,,0.00,VWS V14.00,2013-02-16 09:17:00,
2013-02-16 04:22:00,60.3,56.4,29.88,North,360,0.0,0.0,87,0.00,,,0.00,VWS V14.00,2013-02-16 09:22:00,
2013-02-16 04:27:00,60.3,56.7,29.88,North,360,0.0,0.0,88,0.00,,,0.00,VWS V14.00,2013-02-16 09:27:00,
2013-02-16 04:32:00,60.2,56.3,29.88,North,360,1.0,3.0,87,0.00,,,0.00,VWS V14.00,2013-02-16 09:32:00,
2013-02-16 04:37:00,60.1,56.2,29.89,North,360,1.0,4.0,87,0.00,,,0.00,VWS V14.00,2013-02-16 09:37:00,
2013-02-16 04:42:00,60.1,56.2,29.89,North,360,2.0,4.0,87,0.00,,,0.00,VWS V14.00,2013-02-16 09:42:00,
2013-02-16 04:47:00,60.0,55.8,29.89,North,360,2.0,3.0,86,0.00,,,0.00,VWS V14.00,2013-02-16 09:47:00,
2013-02-16 04:53:00,60.0,55.5,29.89,North,360,3.0,4.0,85,0.00,,,0.00,VWS V14.00,2013-02-16 09:53:00,
2013-02-16 04:58:00,60.0,55.5,29.89,North,360,1.0,4.0,85,0.00,,,0.00,VWS V14.00,2013-02-16 09:58:00,
2013-02-16 05:02:00,60.0,55.5,29.88,North,360,1.0,2.0,85,0.00,,,0.00,VWS V14.00,2013-02-16 10:02:00,
2013-02-16 05:07:00,60.0,55.5,29.88,North,360,2.0,3.0,85,0.00,,,0.00,VWS V14.00,2013-02-16 10:07:00,
2013-02-16 05:12:00,60.0,55.5,29.88,North,360,0.0,3.0,85,0.00,,,0.00,VWS V14.00,2013-02-16 10:12:00,
2013-02-16 05:17:00,60.1,55.6,29.88,North,360,2.0,2.0,85,0.00,,,0.00,VWS V14.00,2013-02-16 10:17:00,
2013-02-16 05:22:00,60.0,55.5,29.89,North,360,0.0,3.0,85,0.00,,,0.00,VWS V14.00,2013-02-16 10:22:00,
2013-02-16 05:27:00,59.9,55.4,29.89,North,360,0.0,3.0,85,0.00,,,0.00,VWS V14.00,2013-02-16 10:27:00,
2013-02-16 05:32:00,59.9,55.7,29.89,North,360,0.0,0.0,86,0.00,,,0.00,VWS V14.00,2013-02-16 10:32:00,
2013-02-16 05:37:00,59.8,55.6,29.89,North,360,0.0,1.0,86,0.00,,,0.00,VWS V14.00,2013-02-16 10:37:00,
2013-02-16 05:42:00,59.7,55.5,29.89,North,360,0.0,1.0,86,0.00,,,0.00,VWS V14.00,2013-02-16 10:42:00,
2013-02-16 05:47:00,59.6,55.4,29.89,North,360,0.0,2.0,86,0.00,,,0.00,VWS V14.00,2013-02-16 10:47:00,
2013-02-16 05:52:00,59.4,55.5,29.89,North,360,0.0,2.0,87,0.00,,,0.00,VWS V14.00,2013-02-16 10:52:00,
2013-02-16 05:57:00,59.3,55.4,29.89,North,360,0.0,2.0,87,0.00,,,0.00,VWS V14.00,2013-02-16 10:57:00,
2013-02-16 06:02:00,59.1,55.2,29.89,North,360,0.0,3.0,87,0.00,,,0.00,VWS V14.00,2013-02-16 11:02:00,
2013-02-16 06:07:00,59.0,55.5,29.89,North,360,2.0,4.0,88,0.00,,,0.00,VWS V14.00,2013-02-16 11:07:00,
2013-02-16 06:12:00,58.9,55.4,29.89,North,360,1.0,4.0,88,0.00,,,0.00,VWS V14.00,2013-02-16 11:12:00,
2013-02-16 06:17:00,58.9,55.7,29.90,North,360,0.0,3.0,89,0.00,,,0.00,VWS V14.00,2013-02-16 11:17:00,
2013-02-16 06:22:00,58.8,55.6,29.90,North,360,3.0,5.0,89,0.00,,,0.00,VWS V14.00,2013-02-16 11:22:00,
2013-02-16 06:27:00,58.6,55.1,29.90,North,360,1.0,6.0,88,0.00,,,0.00,VWS V14.00,2013-02-16 11:27:00,
2013-02-16 06:32:00,58.5,55.0,29.90,North,360,1.0,5.0,88,0.00,,,0.00,VWS V14.00,2013-02-16 11:32:00,
2013-02-16 06:37:00,58.4,54.9,29.90,North,360,2.0,5.0,88,0.00,,,0.00,VWS V14.00,2013-02-16 11:37:00,
2013-02-16 06:42:00,58.3,54.8,29.90,North,360,2.0,5.0,88,0.00,,,0.00,VWS V14.00,2013-02-16 11:42:00,
2013-02-16 06:47:00,58.2,54.7,29.90,North,360,1.0,5.0,88,0.00,,,0.00,VWS V14.00,2013-02-16 11:47:00,
2013-02-16 06:52:00,58.0,54.2,29.91,North,360,2.0,6.0,87,0.00,,,0.00,VWS V14.00,2013-02-16 11:52:00,
2013-02-16 06:57:00,57.8,53.7,29.91,North,360,1.0,6.0,86,0.00,,,0.00,VWS V14.00,2013-02-16 11:57:00,
2013-02-16 07:02:00,57.7,53.2,29.91,North,360,1.0,5.0,85,0.00,,,0.00,VWS V14.00,2013-02-16 12:02:00,
2013-02-16 07:07:00,57.6,53.1,29.91,North,360,0.0,5.0,85,0.00,,,0.00,VWS V14.00,2013-02-16 12:07:00,
2013-02-16 07:12:00,57.5,52.7,29.90,North,360,1.0,5.0,84,0.00,,,0.00,VWS V14.00,2013-02-16 12:12:00,
2013-02-16 07:17:00,57.5,52.7,29.91,North,360,0.0,3.0,84,0.00,,,0.00,VWS V14.00,2013-02-16 12:17:00,
2013-02-16 07:22:00,57.4,52.6,29.91,North,360,2.0,3.0,84,0.00,,,0.00,VWS V14.00,2013-02-16 12:22:00,
2013-02-16 07:27:00,57.4,52.3,29.91,North,360,4.0,5.0,83,0.00,,,0.00,VWS V14.00,2013-02-16 12:27:00,
2013-02-16 07:32:00,57.4,52.0,29.91,North,360,0.0,3.0,82,0.00,,,0.00,VWS V14.00,2013-02-16 12:32:00,
2013-02-16 07:37:00,57.4,52.0,29.91,North,360,1.0,3.0,82,0.00,,,0.00,VWS V14.00,2013-02-16 12:37:00,
2013-02-16 07:42:00,57.5,51.7,29.91,North,360,0.0,3.0,81,0.00,,,0.00,VWS V14.00,2013-02-16 12:42:00,
2013-02-16 07:47:00,57.7,51.9,29.91,North,360,1.0,3.0,81,0.00,,,0.00,VWS V14.00,2013-02-16 12:47:00,
2013-02-16 07:52:00,57.9,51.8,29.91,North,360,3.0,5.0,80,0.00,,,0.00,VWS V14.00,2013-02-16 12:52:00,
2013-02-16 07:57:00,58.0,51.9,29.90,North,360,0.0,5.0,80,0.00,,,0.00,VWS V14.00,2013-02-16 12:57:00,
2013-02-16 08:02:00,58.1,51.6,29.91,North,360,3.0,5.0,79,0.00,,,0.00,VWS V14.00,2013-02-16 13:02:00,
2013-02-16 08:07:00,58.3,51.8,29.91,North,360,0.0,5.0,79,0.00,,,0.00,VWS V14.00,2013-02-16 13:07:00,
2013-02-16 08:12:00,58.6,51.8,29.91,North,355,8.0,8.0,78,0.00,,,0.00,VWS V14.00,2013-02-16 13:12:00,
2013-02-16 08:17:00,58.9,51.4,29.91,NW,317,8.0,8.0,76,0.00,,,0.00,VWS V14.00,2013-02-16 13:17:00,
2013-02-16 08:22:00,59.2,51.3,29.92,NW,315,8.0,11.0,75,0.00,,,0.00,VWS V14.00,2013-02-16 13:22:00,
2013-02-16 08:27:00,59.5,51.2,29.91,North,360,5.0,11.0,74,0.00,,,0.00,VWS V14.00,2013-02-16 13:27:00,
2013-02-16 08:32:00,59.9,51.6,29.91,NNW,344,5.0,9.0,74,0.00,,,0.00,VWS V14.00,2013-02-16 13:32:00,
2013-02-16 08:37:00,60.1,51.8,29.91,North,350,4.0,9.0,74,0.00,,,0.00,VWS V14.00,2013-02-16 13:37:00,
2013-02-16 08:42:00,60.4,52.1,29.92,North,355,1.0,9.0,74,0.00,,,0.00,VWS V14.00,2013-02-16 13:42:00,
2013-02-16 08:47:00,60.7,51.2,29.92,NW,309,6.0,11.0,71,0.00,,,0.00,VWS V14.00,2013-02-16 13:47:00,
2013-02-16 08:52:00,60.8,51.3,29.92,NW,311,6.0,11.0,71,0.00,,,0.00,VWS V14.00,2013-02-16 13:52:00,
2013-02-16 08:57:00,61.0,50.8,29.92,WNW,282,6.0,11.0,69,0.00,,,0.00,VWS V14.00,2013-02-16 13:57:00,
2013-02-16 09:02:00,61.2,51.0,29.93,North,5,3.0,10.0,69,0.00,,,0.00,VWS V14.00,2013-02-16 14:02:00,
2013-02-16 09:07:00,61.5,50.8,29.93,NNW,346,4.0,10.0,68,0.00,,,0.00,VWS V14.00,2013-02-16 14:07:00,
2013-02-16 09:12:00,61.8,50.3,29.92,NW,321,6.0,10.0,66,0.00,,,0.00,VWS V14.00,2013-02-16 14:12:00,
2013-02-16 09:17:00,62.1,49.4,29.93,NNW,330,9.0,11.0,63,0.00,,,0.00,VWS V14.00,2013-02-16 14:17:00,
2013-02-16 09:22:00,62.3,49.1,29.93,NNW,333,5.0,11.0,62,0.00,,,0.00,VWS V14.00,2013-02-16 14:22:00,
2013-02-16 09:27:00,62.5,50.2,29.93,NW,326,2.0,11.0,64,0.00,,,0.00,VWS V14.00,2013-02-16 14:27:00,
2013-02-16 09:32:00,62.6,50.3,29.93,NNW,329,5.0,8.0,64,0.00,,,0.00,VWS V14.00,2013-02-16 14:32:00,
2013-02-16 09:37:00,62.8,50.9,29.94,WNW,290,4.0,8.0,65,0.00,,,0.00,VWS V14.00,2013-02-16 14:37:00,
2013-02-16 09:42:00,63.0,50.7,29.94,WNW,292,7.0,11.0,64,0.01,,,0.01,VWS V14.00,2013-02-16 14:42:00,
2013-02-16 09:47:00,63.2,50.8,29.94,West,272,2.0,9.0,64,0.01,,,0.01,VWS V14.00,2013-02-16 14:47:00,
2013-02-16 09:52:00,63.5,51.5,29.94,WNW,297,4.0,9.0,65,0.01,,,0.01,VWS V14.00,2013-02-16 14:52:00,
2013-02-16 09:57:00,63.7,51.7,29.94,NW,306,2.0,11.0,65,0.01,,,0.01,VWS V14.00,2013-02-16 14:57:00,
2013-02-16 10:02:00,63.9,50.6,29.95,WNW,286,8.0,13.0,62,0.01,,,0.01,VWS V14.00,2013-02-16 15:02:00,
2013-02-16 10:07:00,64.0,52.0,29.95,NNW,342,4.0,13.0,65,0.01,,,0.01,VWS V14.00,2013-02-16 15:07:00,
2013-02-16 10:12:00,64.2,51.8,29.95,NW,304,6.0,13.0,64,0.01,,,0.01,VWS V14.00,2013-02-16 15:12:00,
2013-02-16 10:17:00,64.4,52.4,29.95,WNW,298,7.0,7.0,65,0.01,,,0.01,VWS V14.00,2013-02-16 15:17:00,
2013-02-16 10:22:00,64.5,51.6,29.95,NW,314,6.0,15.0,63,0.01,,,0.01,VWS V14.00,2013-02-16 15:22:00,
2013-02-16 10:27:00,64.9,51.6,29.95,NW,326,8.0,15.0,62,0.01,,,0.01,VWS V14.00,2013-02-16 15:27:00,
2013-02-16 10:32:00,65.2,51.0,29.95,NNW,340,7.0,10.0,60,0.01,,,0.01,VWS V14.00,2013-02-16 15:32:00,
2013-02-16 10:37:00,65.5,49.9,29.95,WNW,285,7.0,13.0,57,0.01,,,0.01,VWS V14.00,2013-02-16 15:37:00,
2013-02-16 10:42:00,65.4,49.3,29.95,WNW,285,4.0,13.0,56,0.01,,,0.01,VWS V14.00,2013-02-16 15:42:00,
2013-02-16 10:47:00,65.2,49.6,29.95,West,277,7.0,11.0,57,0.00,,,0.01,VWS V14.00,2013-02-16 15:47:00,
2013-02-16 10:52:00,65.0,49.9,29.96,NW,312,8.0,12.0,58,0.00,,,0.01,VWS V14.00,2013-02-16 15:52:00,
2013-02-16 10:57:00,65.0,51.2,29.96,WNW,291,13.0,13.0,61,0.00,,,0.01,VWS V14.00,2013-02-16 15:57:00,
2013-02-16 11:02:00,65.2,51.4,29.96,WNW,292,11.0,14.0,61,0.00,,,0.01,VWS V14.00,2013-02-16 16:02:00,
2013-02-16 11:07:00,65.3,51.1,29.95,NW,305,7.0,14.0,60,0.00,,,0.01,VWS V14.00,2013-02-16 16:07:00,
2013-02-16 11:12:00,65.3,51.5,29.96,NW,317,2.0,15.0,61,0.00,,,0.01,VWS V14.00,2013-02-16 16:12:00,
2013-02-16 11:17:00,65.4,51.6,29.96,West,277,5.0,10.0,61,0.00,,,0.01,VWS V14.00,2013-02-16 16:17:00,
2013-02-16 11:22:00,65.4,51.6,29.96,NW,325,8.0,17.0,61,0.00,,,0.01,VWS V14.00,2013-02-16 16:22:00,
2013-02-16 11:27:00,65.4,52.1,29.96,NNW,329,5.0,17.0,62,0.00,,,0.01,VWS V14.00,2013-02-16 16:27:00,
2013-02-16 11:32:00,65.6,52.2,29.96,NNW,344,10.0,11.0,62,0.00,,,0.01,VWS V14.00,2013-02-16 16:32:00,
2013-02-16 11:37:00,65.7,52.3,29.97,WNW,298,6.0,13.0,62,0.00,,,0.01,VWS V14.00,2013-02-16 16:37:00,
2013-02-16 11:42:00,65.8,52.4,29.96,NW,315,7.0,13.0,62,0.00,,,0.01,VWS V14.00,2013-02-16 16:42:00,
2013-02-16 11:47:00,66.1,53.2,29.96,WNW,294,5.0,14.0,63,0.00,,,0.01,VWS V14.00,2013-02-16 16:47:00,
2013-02-16 11:52:00,66.2,52.4,29.96,NW,313,6.0,15.0,61,0.00,,,0.01,VWS V14.00,2013-02-16 16:52:00,
2013-02-16 11:57:00,66.1,52.3,29.96,West,277,15.0,15.0,61,0.00,,,0.01,VWS V14.00,2013-02-16 16:57:00,
2013-02-16 12:02:00,65.7,51.0,29.96,West,277,6.0,15.0,59,0.00,,,0.01,VWS V14.00,2013-02-16 17:02:00,
2013-02-16 12:07:00,65.4,50.2,29.96,NW,308,4.0,15.0,58,0.00,,,0.01,VWS V14.00,2013-02-16 17:07:00,
2013-02-16 12:12:00,65.1,50.0,29.97,NW,316,4.0,15.0,58,0.00,,,0.01,VWS V14.00,2013-02-16 17:12:00,
2013-02-16 12:17:00,65.0,51.2,29.97,WSW,250,3.0,14.0,61,0.00,,,0.01,VWS V14.00,2013-02-16 17:17:00,
2013-02-16 12:22:00,65.2,51.4,29.96,WNW,284,4.0,14.0,61,0.00,,,0.01,VWS V14.00,2013-02-16 17:22:00,
2013-02-16 12:27:00,65.2,51.4,29.96,NW,323,6.0,17.0,61,0.00,,,0.01,VWS V14.00,2013-02-16 17:27:00,
2013-02-16 12:32:00,65.4,51.6,29.96,West,277,13.0,19.0,61,0.00,,,0.01,VWS V14.00,2013-02-16 17:32:00,
2013-02-16 12:37:00,65.2,52.3,29.96,WSW,244,4.0,19.0,63,0.00,,,0.01,VWS V14.00,2013-02-16 17:37:00,
2013-02-16 12:42:00,65.4,52.9,29.95,WNW,284,9.0,19.0,64,0.00,,,0.01,VWS V14.00,2013-02-16 17:42:00,
2013-02-16 12:47:00,65.2,53.2,29.95,NW,325,5.0,18.0,65,0.00,,,0.01,VWS V14.00,2013-02-16 17:47:00,
2013-02-16 12:52:00,65.2,53.6,29.95,NW,313,6.0,18.0,66,0.00,,,0.01,VWS V14.00,2013-02-16 17:52:00,
2013-02-16 12:57:00,65.4,53.8,29.95,NW,326,7.0,18.0,66,0.00,,,0.01,VWS V14.00,2013-02-16 17:57:00,
2013-02-16 13:02:00,65.4,52.9,29.94,WNW,298,8.0,18.0,64,0.00,,,0.01,VWS V14.00,2013-02-16 18:02:00,
2013-02-16 13:07:00,65.5,53.0,29.94,NNW,336,15.0,18.0,64,0.00,,,0.01,VWS V14.00,2013-02-16 18:07:00,
2013-02-16 13:12:00,65.6,52.2,29.94,WNW,299,13.0,20.0,62,0.00,,,0.01,VWS V14.00,2013-02-16 18:12:00,
2013-02-16 13:17:00,65.9,52.1,29.94,NNW,336,10.0,18.0,61,0.00,,,0.01,VWS V14.00,2013-02-16 18:17:00,
2013-02-16 13:22:00,66.2,52.8,29.94,North,5,7.0,21.0,62,0.00,,,0.01,VWS V14.00,2013-02-16 18:22:00,
2013-02-16 13:27:00,66.3,52.0,29.93,West,267,11.0,21.0,60,0.00,,,0.01,VWS V14.00,2013-02-16 18:27:00,
2013-02-16 13:32:00,66.4,52.1,29.93,NNW,328,11.0,17.0,60,0.00,,,0.01,VWS V14.00,2013-02-16 18:32:00,
2013-02-16 13:37:00,66.6,52.3,29.93,West,269,12.0,17.0,60,0.00,,,0.01,VWS V14.00,2013-02-16 18:37:00,
2013-02-16 13:42:00,66.8,52.0,29.93,NW,306,9.0,23.0,59,0.00,,,0.01,VWS V14.00,2013-02-16 18:42:00,
2013-02-16 13:47:00,66.9,53.0,29.92,NW,304,13.0,14.0,61,0.00,,,0.01,VWS V14.00,2013-02-16 18:47:00,
2013-02-16 13:52:00,66.9,52.6,29.92,West,279,16.0,16.0,60,0.00,,,0.01,VWS V14.00,2013-02-16 18:52:00,
2013-02-16 13:57:00,66.5,51.8,29.92,NW,317,12.0,23.0,59,0.00,,,0.01,VWS V14.00,2013-02-16 18:57:00,
2013-02-16 14:02:00,66.7,52.4,29.92,NW,308,13.0,16.0,60,0.00,,,0.01,VWS V14.00,2013-02-16 19:02:00,
2013-02-16 14:07:00,67.0,52.2,29.92,West,277,2.0,20.0,59,0.00,,,0.01,VWS V14.00,2013-02-16 19:07:00,
2013-02-16 14:12:00,67.0,53.1,29.93,WNW,293,15.0,20.0,61,0.00,,,0.01,VWS V14.00,2013-02-16 19:12:00,
2013-02-16 14:17:00,67.2,52.4,29.92,WNW,284,20.0,20.0,59,0.00,,,0.01,VWS V14.00,2013-02-16 19:17:00,
2013-02-16 14:22:00,66.9,52.1,29.92,NW,315,24.0,24.0,59,0.00,,,0.01,VWS V14.00,2013-02-16 19:22:00,
2013-02-16 14:27:00,66.8,52.0,29.92,NNW,336,10.0,24.0,59,0.00,,,0.01,VWS V14.00,2013-02-16 19:27:00,
2013-02-16 14:32:00,67.1,52.3,29.92,NW,314,5.0,21.0,59,0.00,,,0.01,VWS V14.00,2013-02-16 19:32:00,
2013-02-16 14:37:00,67.4,53.0,29.92,West,271,8.0,21.0,60,0.00,,,0.01,VWS V14.00,2013-02-16 19:37:00,
2013-02-16 14:42:00,67.5,53.1,29.92,NW,307,19.0,21.0,60,0.00,,,0.01,VWS V14.00,2013-02-16 19:42:00,
2013-02-16 14:47:00,67.6,53.2,29.92,WNW,302,12.0,15.0,60,0.00,,,0.01,VWS V14.00,2013-02-16 19:47:00,
2013-02-16 14:52:00,67.8,53.9,29.92,WNW,282,9.0,18.0,61,0.00,,,0.01,VWS V14.00,2013-02-16 19:52:00,
2013-02-16 14:57:00,67.9,52.6,29.92,WNW,289,18.0,18.0,58,0.00,,,0.01,VWS V14.00,2013-02-16 19:57:00,
2013-02-16 15:02:00,67.9,53.1,29.92,WNW,298,13.0,17.0,59,0.00,,,0.01,VWS V14.00,2013-02-16 20:02:00,
2013-02-16 15:07:00,67.7,52.9,29.92,West,278,15.0,18.0,59,0.00,,,0.01,VWS V14.00,2013-02-16 20:07:00,
2013-02-16 15:12:00,67.5,53.1,29.92,NNW,340,12.0,18.0,60,0.00,,,0.01,VWS V14.00,2013-02-16 20:12:00,
2013-02-16 15:17:00,67.6,52.8,29.93,West,267,8.0,17.0,59,0.00,,,0.01,VWS V14.00,2013-02-16 20:17:00,
2013-02-16 15:22:00,67.7,52.9,29.93,NW,309,15.0,17.0,59,0.00,,,0.01,VWS V14.00,2013-02-16 20:22:00,
2013-02-16 15:27:00,67.7,52.9,29.92,WNW,286,7.0,17.0,59,0.00,,,0.01,VWS V14.00,2013-02-16 20:27:00,
2013-02-16 15:32:00,67.8,53.0,29.92,West,279,19.0,23.0,59,0.00,,,0.01,VWS V14.00,2013-02-16 20:32:00,
2013-02-16 15:37:00,67.7,52.9,29.92,NNW,341,10.0,23.0,59,0.00,,,0.01,VWS V14.00,2013-02-16 20:37:00,
2013-02-16 15:42:00,67.5,52.7,29.92,WNW,290,8.0,23.0,59,0.00,,,0.01,VWS V14.00,2013-02-16 20:42:00,
2013-02-16 15:47:00,67.4,53.0,29.92,NW,326,5.0,20.0,60,0.00,,,0.01,VWS V14.00,2013-02-16 20:47:00,
2013-02-16 15:52:00,67.5,53.6,29.92,NW,326,10.0,20.0,61,0.00,,,0.01,VWS V14.00,2013-02-16 20:52:00,
2013-02-16 15:57:00,67.7,52.9,29.92,NNW,339,12.0,22.0,59,0.00,,,0.01,VWS V14.00,2013-02-16 20:57:00,
2013-02-16 16:02:00,67.5,54.0,29.92,NNW,342,10.0,23.0,62,0.00,,,0.01,VWS V14.00,2013-02-16 21:02:00,
2013-02-16 16:07:00,67.0,54.9,29.93,NW,312,11.0,23.0,65,0.00,,,0.01,VWS V14.00,2013-02-16 21:07:00,
2013-02-16 16:12:00,66.3,54.6,29.94,NW,309,15.0,24.0,66,0.00,,,0.01,VWS V14.00,2013-02-16 21:12:00,
2013-02-16 16:17:00,65.4,54.2,29.94,North,355,16.0,23.0,67,0.00,,,0.01,VWS V14.00,2013-02-16 21:17:00,
2013-02-16 16:22:00,64.5,54.1,29.94,NNW,327,10.0,23.0,69,0.00,,,0.01,VWS V14.00,2013-02-16 21:22:00,
2013-02-16 16:27:00,64.1,54.1,29.94,NW,319,11.0,23.0,70,0.00,,,0.01,VWS V14.00,2013-02-16 21:27:00,
2013-02-16 16:32:00,63.8,53.5,29.94,NW,324,12.0,16.0,69,0.00,,,0.01,VWS V14.00,2013-02-16 21:32:00,
2013-02-16 16:37:00,63.7,53.7,29.94,NW,317,9.0,21.0,70,0.00,,,0.01,VWS V14.00,2013-02-16 21:37:00,
2013-02-16 16:42:00,63.8,53.5,29.94,NW,318,17.0,21.0,69,0.00,,,0.01,VWS V14.00,2013-02-16 21:42:00,
2013-02-16 16:47:00,63.6,53.7,29.94,NW,326,9.0,14.0,70,0.00,,,0.01,VWS V14.00,2013-02-16 21:47:00,
2013-02-16 16:52:00,63.6,54.0,29.95,WNW,298,9.0,19.0,71,0.00,,,0.01,VWS V14.00,2013-02-16 21:52:00,
2013-02-16 16:57:00,63.5,53.9,29.95,NNW,339,12.0,22.0,71,0.00,,,0.01,VWS V14.00,2013-02-16 21:57:00,
2013-02-16 17:02:00,63.4,53.8,29.95,NNW,342,5.0,14.0,71,0.00,,,0.01,VWS V14.00,2013-02-16 22:02:00,
2013-02-16 17:07:00,63.3,53.4,29.95,NW,310,8.0,19.0,70,0.00,,,0.01,VWS V14.00,2013-02-16 22:07:00,
2013-02-16 17:12:00,63.2,53.3,29.95,WNW,294,18.0,19.0,70,0.00,,,0.01,VWS V14.00,2013-02-16 22:12:00,
2013-02-16 17:17:00,63.0,53.5,29.95,WSW,257,6.0,14.0,71,0.00,,,0.01,VWS V14.00,2013-02-16 22:17:00,
2013-02-16 17:22:00,63.0,53.8,29.96,NNW,330,12.0,15.0,72,0.00,,,0.01,VWS V14.00,2013-02-16 22:22:00,
2013-02-16 17:27:00,62.9,53.4,29.95,NNW,345,14.0,18.0,71,0.00,,,0.01,VWS V14.00,2013-02-16 22:27:00,
2013-02-16 17:32:00,62.9,53.0,29.96,NNW,327,15.0,15.0,70,0.00,,,0.01,VWS V14.00,2013-02-16 22:32:00,
2013-02-16 17:37:00,62.8,52.1,29.96,NW,319,18.0,22.0,68,0.00,,,0.01,VWS V14.00,2013-02-16 22:37:00,
2013-02-16 17:42:00,62.6,51.9,29.96,NNW,331,6.0,22.0,68,0.00,,,0.01,VWS V14.00,2013-02-16 22:42:00,
2013-02-16 17:47:00,62.6,51.9,29.96,NNE,28,9.0,11.0,68,0.00,,,0.01,VWS V14.00,2013-02-16 22:47:00,
2013-02-16 17:52:00,62.5,51.0,29.96,NW,305,9.0,16.0,66,0.00,,,0.01,VWS V14.00,2013-02-16 22:52:00,
2013-02-16 17:57:00,62.4,50.9,29.96,NNW,340,4.0,16.0,66,0.00,,,0.01,VWS V14.00,2013-02-16 22:57:00,
2013-02-16 18:02:00,62.2,50.3,29.97,WNW,299,6.0,16.0,65,0.00,,,0.01,VWS V14.00,2013-02-16 23:02:00,
2013-02-16 18:07:00,61.9,49.2,29.97,North,5,7.0,19.0,63,0.00,,,0.01,VWS V14.00,2013-02-16 23:07:00,
2013-02-16 18:12:00,61.6,49.3,29.97,NW,311,12.0,20.0,64,0.00,,,0.01,VWS V14.00,2013-02-16 23:12:00,
2013-02-16 18:17:00,61.2,48.9,29.97,West,281,13.0,19.0,64,0.00,,,0.01,VWS V14.00,2013-02-16 23:17:00,
2013-02-16 18:22:00,60.9,49.1,29.98,NNW,334,9.0,21.0,65,0.00,,,0.01,VWS V14.00,2013-02-16 23:22:00,
2013-02-16 18:27:00,60.6,48.8,29.98,NNW,333,6.0,21.0,65,0.00,,,0.01,VWS V14.00,2013-02-16 23:27:00,
2013-02-16 18:32:00,60.4,49.0,29.98,NW,319,15.0,18.0,66,0.00,,,0.01,VWS V14.00,2013-02-16 23:32:00,
2013-02-16 18:37:00,60.2,48.8,29.98,WNW,285,6.0,20.0,66,0.00,,,0.01,VWS V14.00,2013-02-16 23:37:00,
2013-02-16 18:42:00,60.0,48.6,29.99,NW,319,7.0,20.0,66,0.00,,,0.01,VWS V14.00,2013-02-16 23:42:00,
2013-02-16 18:47:00,59.8,48.8,29.99,WNW,300,11.0,12.0,67,0.00,,,0.01,VWS V14.00,2013-02-16 23:47:00,
2013-02-16 18:52:00,59.6,48.6,29.99,North,355,12.0,17.0,67,0.00,,,0.01,VWS V14.00,2013-02-16 23:52:00,
2013-02-16 18:57:00,59.4,48.5,29.99,NNW,344,4.0,17.0,67,0.00,,,0.01,VWS V14.00,2013-02-16 23:57:00,
2013-02-16 19:02:00,59.3,48.8,30.00,NW,310,6.0,12.0,68,0.00,,,0.01,VWS V14.00,2013-02-17 00:02:00,
2013-02-16 19:07:00,59.2,48.7,30.00,NW,316,6.0,17.0,68,0.00,,,0.01,VWS V14.00,2013-02-17 00:07:00,
2013-02-16 19:12:00,59.1,48.6,30.01,NNW,330,10.0,17.0,68,0.00,,,0.01,VWS V14.00,2013-02-17 00:12:00,
2013-02-16 19:17:00,59.0,48.9,30.00,NW,317,10.0,12.0,69,0.00,,,0.01,VWS V14.00,2013-02-17 00:17:00,
2013-02-16 19:22:00,58.9,48.8,30.01,WNW,301,7.0,15.0,69,0.00,,,0.01,VWS V14.00,2013-02-17 00:22:00,
2013-02-16 19:27:00,58.9,48.8,30.01,NNW,331,9.0,15.0,69,0.00,,,0.01,VWS V14.00,2013-02-17 00:27:00,
2013-02-16 19:32:00,58.8,49.0,30.01,NNW,331,5.0,11.0,70,0.00,,,0.01,VWS V14.00,2013-02-17 00:32:00,
2013-02-16 19:37:00,58.7,49.0,30.01,NW,312,5.0,11.0,70,0.00,,,0.01,VWS V14.00,2013-02-17 00:37:00,
2013-02-16 19:42:00,58.6,48.9,30.01,NNW,333,2.0,13.0,70,0.00,,,0.01,VWS V14.00,2013-02-17 00:42:00,
2013-02-16 19:47:00,58.5,48.8,30.01,WNW,286,5.0,9.0,70,0.00,,,0.01,VWS V14.00,2013-02-17 00:47:00,
2013-02-16 19:52:00,58.4,49.0,30.01,NW,313,0.0,11.0,71,0.00,,,0.01,VWS V14.00,2013-02-17 00:52:00,
2013-02-16 19:57:00,58.4,49.0,30.01,NW,317,0.0,11.0,71,0.00,,,0.01,VWS V14.00,2013-02-17 00:57:00,
2013-02-16 20:02:00,58.3,49.0,30.02,NNW,340,11.0,11.0,71,0.00,,,0.01,VWS V14.00,2013-02-17 01:02:00,
2013-02-16 20:07:00,58.3,49.3,30.02,NNW,338,8.0,11.0,72,0.00,,,0.01,VWS V14.00,2013-02-17 01:07:00,
2013-02-16 20:12:00,58.4,49.4,30.02,NW,321,4.0,11.0,72,0.00,,,0.01,VWS V14.00,2013-02-17 01:12:00,
2013-02-16 20:17:00,58.5,49.5,30.02,North,5,6.0,8.0,72,0.00,,,0.01,VWS V14.00,2013-02-17 01:17:00,
2013-02-16 20:22:00,58.6,49.6,30.02,NW,309,2.0,10.0,72,0.00,,,0.01,VWS V14.00,2013-02-17 01:22:00,
2013-02-16 20:27:00,58.5,49.5,30.02,NNW,346,8.0,10.0,72,0.00,,,0.01,VWS V14.00,2013-02-17 01:27:00,
2013-02-16 20:32:00,58.4,49.4,30.03,North,360,2.0,8.0,72,0.00,,,0.01,VWS V14.00,2013-02-17 01:32:00,
2013-02-16 20:37:00,58.4,49.4,30.03,North,5,4.0,11.0,72,0.00,,,0.01,VWS V14.00,2013-02-17 01:37:00,
2013-02-16 20:42:00,58.2,49.2,30.03,NNE,13,3.0,11.0,72,0.00,,,0.01,VWS V14.00,2013-02-17 01:42:00,
2013-02-16 20:47:00,58.0,49.4,30.03,NNW,333,5.0,8.0,73,0.00,,,0.01,VWS V14.00,2013-02-17 01:47:00,
2013-02-16 20:52:00,57.8,49.2,30.03,NNW,345,9.0,11.0,73,0.00,,,0.01,VWS V14.00,2013-02-17 01:52:00,
2013-02-16 20:57:00,57.7,49.1,30.04,North,350,8.0,11.0,73,0.00,,,0.01,VWS V14.00,2013-02-17 01:57:00,
2013-02-16 21:02:00,57.6,49.0,30.04,NNW,346,5.0,6.0,73,0.00,,,0.01,VWS V14.00,2013-02-17 02:02:00,
2013-02-16 21:07:00,57.5,48.9,30.04,North,360,2.0,6.0,73,0.00,,,0.01,VWS V14.00,2013-02-17 02:07:00,
2013-02-16 21:12:00,57.4,48.8,30.04,North,360,5.0,7.0,73,0.00,,,0.01,VWS V14.00,2013-02-17 02:12:00,
2013-02-16 21:16:00,57.3,49.1,30.04,NNW,348,0.0,6.0,74,0.00,,,0.01,VWS V14.00,2013-02-17 02:16:00,
2013-02-16 21:21:00,57.2,49.0,30.05,NNW,348,5.0,6.0,74,0.00,,,0.01,VWS V14.00,2013-02-17 02:21:00,
2013-02-16 21:26:00,57.1,48.9,30.05,NNW,334,0.0,6.0,74,0.00,,,0.01,VWS V14.00,2013-02-17 02:26:00,
2013-02-16 21:31:00,57.0,48.8,30.05,NNW,333,5.0,5.0,74,0.00,,,0.01,VWS V14.00,2013-02-17 02:31:00,
2013-02-16 21:36:00,56.9,48.7,30.05,NNW,342,2.0,6.0,74,0.00,,,0.01,VWS V14.00,2013-02-17 02:36:00,
2013-02-16 21:41:00,56.8,49.0,30.05,NNW,341,0.0,6.0,75,0.00,,,0.01,VWS V14.00,2013-02-17 02:41:00,
2013-02-16 21:46:00,56.7,48.9,30.05,North,355,4.0,7.0,75,0.00,,,0.01,VWS V14.00,2013-02-17 02:46:00,
2013-02-16 21:51:00,56.6,49.1,30.06,NNW,338,6.0,7.0,76,0.00,,,0.01,VWS V14.00,2013-02-17 02:51:00,
2013-02-16 21:56:00,56.5,49.0,30.06,North,350,5.0,7.0,76,0.00,,,0.01,VWS V14.00,2013-02-17 02:56:00,
2013-02-16 22:01:00,56.4,48.9,30.06,North,355,0.0,1.0,76,0.00,,,0.01,VWS V14.00,2013-02-17 03:01:00,
2013-02-16 22:06:00,56.4,48.9,30.06,North,355,2.0,4.0,76,0.00,,,0.01,VWS V14.00,2013-02-17 03:06:00,
2013-02-16 22:11:00,56.3,48.8,30.06,North,355,0.0,4.0,76,0.00,,,0.01,VWS V14.00,2013-02-17 03:11:00,
2013-02-16 22:16:00,56.3,49.2,30.06,North,355,0.0,1.0,77,0.00,,,0.01,VWS V14.00,2013-02-17 03:16:00,
2013-02-16 22:21:00,56.2,49.1,30.06,NNW,346,1.0,7.0,77,0.00,,,0.01,VWS V14.00,2013-02-17 03:21:00,
2013-02-16 22:26:00,56.2,49.1,30.06,NNW,346,0.0,7.0,77,0.00,,,0.01,VWS V14.00,2013-02-17 03:26:00,
2013-02-16 22:31:00,56.1,49.0,30.06,NNW,346,2.0,7.0,77,0.00,,,0.01,VWS V14.00,2013-02-17 03:31:00,
2013-02-16 22:36:00,56.1,49.0,30.06,NNW,346,0.0,7.0,77,0.00,,,0.01,VWS V14.00,2013-02-17 03:36:00,
2013-02-16 22:41:00,56.1,49.0,30.06,NNW,346,0.0,7.0,77,0.00,,,0.01,VWS V14.00,2013-02-17 03:41:00,
2013-02-16 22:46:00,56.0,48.5,30.06,NNW,346,0.0,2.0,76,0.00,,,0.01,VWS V14.00,2013-02-17 03:46:00,
2013-02-16 22:51:00,56.1,48.7,30.06,NNW,346,0.0,5.0,76,0.00,,,0.01,VWS V14.00,2013-02-17 03:51:00,
2013-02-16 22:56:00,56.2,48.4,30.07,NNW,346,0.0,5.0,75,0.00,,,0.01,VWS V14.00,2013-02-17 03:56:00,
2013-02-16 23:01:00,56.3,48.1,30.06,NNW,346,0.0,4.0,74,0.00,,,0.01,VWS V14.00,2013-02-17 04:01:00,
2013-02-16 23:06:00,56.4,47.5,30.06,NNW,346,1.0,6.0,72,0.00,,,0.01,VWS V14.00,2013-02-17 04:06:00,
2013-02-16 23:11:00,56.5,47.2,30.06,North,5,5.0,10.0,71,0.00,,,0.01,VWS V14.00,2013-02-17 04:11:00,
2013-02-16 23:16:00,56.7,46.3,30.06,NW,305,11.0,13.0,68,0.00,,,0.01,VWS V14.00,2013-02-17 04:16:00,
2013-02-16 23:21:00,57.3,45.7,30.06,NW,313,7.0,13.0,65,0.00,,,0.01,VWS V14.00,2013-02-17 04:21:00,
2013-02-16 23:26:00,57.7,45.2,30.06,NNW,341,6.0,13.0,63,0.00,,,0.01,VWS V14.00,2013-02-17 04:26:00,
2013-02-16 23:31:00,57.9,45.0,30.06,NW,324,7.0,10.0,62,0.00,,,0.01,VWS V14.00,2013-02-17 04:31:00,
2013-02-16 23:36:00,58.0,44.6,30.06,NNW,345,6.0,10.0,61,0.00,,,0.01,VWS V14.00,2013-02-17 04:36:00,
2013-02-16 23:41:00,58.0,44.6,30.06,NW,326,4.0,11.0,61,0.00,,,0.01,VWS V14.00,2013-02-17 04:41:00,
2013-02-16 23:46:00,58.0,45.1,30.06,WNW,286,7.0,7.0,62,0.00,,,0.01,VWS V14.00,2013-02-17 04:46:00,
2013-02-16 23:51:00,58.0,44.2,30.06,NNW,332,11.0,12.0,60,0.00,,,0.01,VWS V14.00,2013-02-17 04:51:00,
2013-02-16 23:56:00,58.1,43.4,30.06,NNW,329,1.0,13.0,58,0.00,,,0.01,VWS V14.00,2013-02-17 04:56:00,